sensor_id;sensor_type;location;lat;lon;timestamp;temperature;humidity
18577;DHT22;9418;52.694;13.294;2022-12-18T00:01:59;-4.50;99.90
18577;DHT22;9418;52.694;13.294;2022-12-18T00:04:26;-4.50;99.90
18577;DHT22;9418;52.694;13.294;2022-12-18T00:06:53;-4.50;99.90
18577;DHT22;9418;52.694;13.294;2022-12-18T00:09:20;-4.50;99.90
18577;DHT22;9418;52.694;13.294;2022-12-18T00:11:46;-4.50;99.90
18577;DHT22;9418;52.694;13.294;2022-12-18T00:14:14;-4.50;99.90
18577;DHT22;9418;52.694;13.294;2022-12-18T00:16:43;-4.60;99.90
18577;DHT22;9418;52.694;13.294;2022-12-18T00:19:11;-4.60;99.90
18577;DHT22;9418;52.694;13.294;2022-12-18T00:21:42;-4.60;99.90
18577;DHT22;9418;52.694;13.294;2022-12-18T00:24:09;-4.70;99.90
18577;DHT22;9418;52.694;13.294;2022-12-18T00:26:37;-4.60;99.90
18577;DHT22;9418;52.694;13.294;2022-12-18T00:29:06;-4.70;99.90
18577;DHT22;9418;52.694;13.294;2022-12-18T00:31:34;-4.60;99.90
18577;DHT22;9418;52.694;13.294;2022-12-18T00:34:02;-4.60;99.90
18577;DHT22;9418;52.694;13.294;2022-12-18T00:36:30;-4.70;99.90
18577;DHT22;9418;52.694;13.294;2022-12-18T00:38:58;-4.80;99.90
18577;DHT22;9418;52.694;13.294;2022-12-18T00:41:26;-4.70;99.90
18577;DHT22;9418;52.694;13.294;2022-12-18T00:44:12;-4.80;99.90
18577;DHT22;9418;52.694;13.294;2022-12-18T00:46:40;-4.80;99.90
18577;DHT22;9418;52.694;13.294;2022-12-18T00:49:07;-4.90;99.90
18577;DHT22;9418;52.694;13.294;2022-12-18T00:51:34;-4.90;99.90
18577;DHT22;9418;52.694;13.294;2022-12-18T00:54:00;-5.00;99.90
18577;DHT22;9418;52.694;13.294;2022-12-18T00:56:27;-5.00;99.90
18577;DHT22;9418;52.694;13.294;2022-12-18T00:58:54;-5.00;99.90
18577;DHT22;9418;52.694;13.294;2022-12-18T01:01:20;-5.00;99.90
18577;DHT22;9418;52.694;13.294;2022-12-18T01:03:48;-4.90;99.90
18577;DHT22;9418;52.694;13.294;2022-12-18T01:06:16;-4.90;99.90
18577;DHT22;9418;52.694;13.294;2022-12-18T01:08:42;-4.80;99.90
18577;DHT22;9418;52.694;13.294;2022-12-18T01:11:11;-4.80;99.90
18577;DHT22;9418;52.694;13.294;2022-12-18T01:13:38;-4.70;99.90
18577;DHT22;9418;52.694;13.294;2022-12-18T01:16:04;-4.60;99.90
18577;DHT22;9418;52.694;13.294;2022-12-18T01:18:31;-4.70;99.90
18577;DHT22;9418;52.694;13.294;2022-12-18T01:20:59;-4.60;99.90
18577;DHT22;9418;52.694;13.294;2022-12-18T01:23:29;-4.70;99.90
18577;DHT22;9418;52.694;13.294;2022-12-18T01:25:55;-4.70;99.90
18577;DHT22;9418;52.694;13.294;2022-12-18T01:28:22;-4.70;99.90
18577;DHT22;9418;52.694;13.294;2022-12-18T01:30:48;-4.70;99.90
18577;DHT22;9418;52.694;13.294;2022-12-18T01:33:15;-4.80;99.90
18577;DHT22;9418;52.694;13.294;2022-12-18T01:35:42;-5.00;99.90
18577;DHT22;9418;52.694;13.294;2022-12-18T01:38:12;-4.90;99.90
18577;DHT22;9418;52.694;13.294;2022-12-18T01:40:38;-4.90;99.90
18577;DHT22;9418;52.694;13.294;2022-12-18T01:43:05;-4.90;99.90
18577;DHT22;9418;52.694;13.294;2022-12-18T01:45:33;-5.00;99.90
18577;DHT22;9418;52.694;13.294;2022-12-18T01:48:01;-5.00;99.90
18577;DHT22;9418;52.694;13.294;2022-12-18T01:50:31;-5.00;99.90
18577;DHT22;9418;52.694;13.294;2022-12-18T01:53:01;-5.00;99.90
18577;DHT22;9418;52.694;13.294;2022-12-18T01:55:32;-5.00;99.90
18577;DHT22;9418;52.694;13.294;2022-12-18T01:58:01;-5.00;99.90
18577;DHT22;9418;52.694;13.294;2022-12-18T02:00:29;-5.10;99.90
18577;DHT22;9418;52.694;13.294;2022-12-18T02:02:55;-5.30;99.90
18577;DHT22;9418;52.694;13.294;2022-12-18T02:05:32;-5.30;99.90
18577;DHT22;9418;52.694;13.294;2022-12-18T02:08:08;-5.20;99.90
18577;DHT22;9418;52.694;13.294;2022-12-18T02:10:44;-5.20;99.90
18577;DHT22;9418;52.694;13.294;2022-12-18T02:13:14;-5.30;99.90
18577;DHT22;9418;52.694;13.294;2022-12-18T02:15:49;-5.20;99.90
18577;DHT22;9418;52.694;13.294;2022-12-18T02:18:21;-5.20;99.90
18577;DHT22;9418;52.694;13.294;2022-12-18T02:20:54;-5.10;99.90
18577;DHT22;9418;52.694;13.294;2022-12-18T02:23:36;-5.10;99.90
18577;DHT22;9418;52.694;13.294;2022-12-18T02:26:14;-5.30;99.90
18577;DHT22;9418;52.694;13.294;2022-12-18T02:28:46;-5.20;99.90
18577;DHT22;9418;52.694;13.294;2022-12-18T02:31:17;-5.20;99.90
18577;DHT22;9418;52.694;13.294;2022-12-18T02:33:50;-5.20;99.90
18577;DHT22;9418;52.694;13.294;2022-12-18T02:36:20;-5.20;99.90
18577;DHT22;9418;52.694;13.294;2022-12-18T02:38:47;-5.30;99.90
18577;DHT22;9418;52.694;13.294;2022-12-18T02:41:16;-5.30;99.90
18577;DHT22;9418;52.694;13.294;2022-12-18T02:43:53;-5.30;99.90
18577;DHT22;9418;52.694;13.294;2022-12-18T02:46:27;-5.30;99.90
18577;DHT22;9418;52.694;13.294;2022-12-18T02:49:01;-5.10;99.90
18577;DHT22;9418;52.694;13.294;2022-12-18T02:51:39;-5.20;99.90
18577;DHT22;9418;52.694;13.294;2022-12-18T02:54:14;-5.20;99.90
18577;DHT22;9418;52.694;13.294;2022-12-18T02:56:50;-5.30;99.90
18577;DHT22;9418;52.694;13.294;2022-12-18T02:59:21;-5.30;99.90
18577;DHT22;9418;52.694;13.294;2022-12-18T03:01:52;-5.20;99.90
18577;DHT22;9418;52.694;13.294;2022-12-18T03:04:25;-5.10;99.90
18577;DHT22;9418;52.694;13.294;2022-12-18T03:06:55;-5.10;99.90
18577;DHT22;9418;52.694;13.294;2022-12-18T03:09:27;-5.10;99.90
18577;DHT22;9418;52.694;13.294;2022-12-18T03:12:04;-5.10;99.90
18577;DHT22;9418;52.694;13.294;2022-12-18T03:14:54;-5.20;99.90
18577;DHT22;9418;52.694;13.294;2022-12-18T03:17:23;-5.20;99.90
18577;DHT22;9418;52.694;13.294;2022-12-18T03:19:52;-5.40;99.90
18577;DHT22;9418;52.694;13.294;2022-12-18T03:22:20;-5.60;99.90
18577;DHT22;9418;52.694;13.294;2022-12-18T03:24:50;-5.50;99.90
18577;DHT22;9418;52.694;13.294;2022-12-18T03:27:20;-5.60;99.90
18577;DHT22;9418;52.694;13.294;2022-12-18T03:29:53;-5.70;99.90
18577;DHT22;9418;52.694;13.294;2022-12-18T03:32:23;-5.60;99.90
18577;DHT22;9418;52.694;13.294;2022-12-18T03:34:53;-5.60;99.90
18577;DHT22;9418;52.694;13.294;2022-12-18T03:37:21;-5.60;99.90
18577;DHT22;9418;52.694;13.294;2022-12-18T03:39:48;-5.60;99.90
18577;DHT22;9418;52.694;13.294;2022-12-18T03:42:20;-5.60;99.90
18577;DHT22;9418;52.694;13.294;2022-12-18T03:44:56;-5.50;99.90
18577;DHT22;9418;52.694;13.294;2022-12-18T03:47:27;-5.50;99.90
18577;DHT22;9418;52.694;13.294;2022-12-18T03:49:59;-5.60;99.90
18577;DHT22;9418;52.694;13.294;2022-12-18T03:52:33;-5.50;99.90
18577;DHT22;9418;52.694;13.294;2022-12-18T03:55:03;-5.50;99.90
18577;DHT22;9418;52.694;13.294;2022-12-18T03:57:33;-5.50;99.90
18577;DHT22;9418;52.694;13.294;2022-12-18T04:00:02;-5.50;99.90
18577;DHT22;9418;52.694;13.294;2022-12-18T04:02:31;-5.50;99.90
18577;DHT22;9418;52.694;13.294;2022-12-18T04:05:01;-5.50;99.90
18577;DHT22;9418;52.694;13.294;2022-12-18T04:07:29;-5.60;99.90
18577;DHT22;9418;52.694;13.294;2022-12-18T04:09:58;-5.60;99.90
18577;DHT22;9418;52.694;13.294;2022-12-18T04:12:25;-5.70;99.90
18577;DHT22;9418;52.694;13.294;2022-12-18T04:14:53;-5.70;99.90
18577;DHT22;9418;52.694;13.294;2022-12-18T04:17:20;-5.90;99.90
18577;DHT22;9418;52.694;13.294;2022-12-18T04:19:47;-5.80;99.90
18577;DHT22;9418;52.694;13.294;2022-12-18T04:22:14;-5.80;99.90
18577;DHT22;9418;52.694;13.294;2022-12-18T04:24:40;-5.80;99.90
18577;DHT22;9418;52.694;13.294;2022-12-18T04:27:07;-5.80;99.90
18577;DHT22;9418;52.694;13.294;2022-12-18T04:29:34;-5.70;99.90
18577;DHT22;9418;52.694;13.294;2022-12-18T04:32:01;-5.70;99.90
18577;DHT22;9418;52.694;13.294;2022-12-18T04:34:28;-5.90;99.90
18577;DHT22;9418;52.694;13.294;2022-12-18T04:36:55;-5.90;99.90
18577;DHT22;9418;52.694;13.294;2022-12-18T04:39:21;-5.90;99.90
18577;DHT22;9418;52.694;13.294;2022-12-18T04:41:48;-5.90;99.90
18577;DHT22;9418;52.694;13.294;2022-12-18T04:44:14;-5.90;99.90
18577;DHT22;9418;52.694;13.294;2022-12-18T04:46:41;-5.90;99.90
18577;DHT22;9418;52.694;13.294;2022-12-18T04:49:09;-5.80;99.90
18577;DHT22;9418;52.694;13.294;2022-12-18T04:51:36;-5.80;99.90
18577;DHT22;9418;52.694;13.294;2022-12-18T04:54:03;-5.90;99.90
18577;DHT22;9418;52.694;13.294;2022-12-18T04:56:30;-5.80;99.90
18577;DHT22;9418;52.694;13.294;2022-12-18T04:58:57;-5.80;99.90
18577;DHT22;9418;52.694;13.294;2022-12-18T05:01:24;-5.80;99.90
18577;DHT22;9418;52.694;13.294;2022-12-18T05:03:51;-5.80;99.90
18577;DHT22;9418;52.694;13.294;2022-12-18T05:06:19;-5.90;99.90
18577;DHT22;9418;52.694;13.294;2022-12-18T05:08:45;-5.80;99.90
18577;DHT22;9418;52.694;13.294;2022-12-18T05:11:14;-5.90;99.90
18577;DHT22;9418;52.694;13.294;2022-12-18T05:13:41;-6.00;99.90
18577;DHT22;9418;52.694;13.294;2022-12-18T05:16:08;-6.00;99.90
18577;DHT22;9418;52.694;13.294;2022-12-18T05:18:35;-6.00;99.90
18577;DHT22;9418;52.694;13.294;2022-12-18T05:21:01;-6.00;99.90
18577;DHT22;9418;52.694;13.294;2022-12-18T05:23:29;-5.90;99.90
18577;DHT22;9418;52.694;13.294;2022-12-18T05:25:57;-5.90;99.90
18577;DHT22;9418;52.694;13.294;2022-12-18T05:28:25;-5.80;99.90
18577;DHT22;9418;52.694;13.294;2022-12-18T05:30:54;-5.80;99.90
18577;DHT22;9418;52.694;13.294;2022-12-18T05:33:22;-5.80;99.90
18577;DHT22;9418;52.694;13.294;2022-12-18T05:35:50;-5.80;99.90
18577;DHT22;9418;52.694;13.294;2022-12-18T05:38:17;-5.80;99.90
18577;DHT22;9418;52.694;13.294;2022-12-18T05:40:45;-5.80;99.90
18577;DHT22;9418;52.694;13.294;2022-12-18T05:43:13;-5.80;99.90
18577;DHT22;9418;52.694;13.294;2022-12-18T05:45:40;-6.00;81.60
18577;DHT22;9418;52.694;13.294;2022-12-18T05:48:07;-6.00;21.30
18577;DHT22;9418;52.694;13.294;2022-12-18T05:50:34;-5.90;99.90
18577;DHT22;9418;52.694;13.294;2022-12-18T05:53:01;-6.00;99.90
18577;DHT22;9418;52.694;13.294;2022-12-18T05:55:27;-5.90;99.90
18577;DHT22;9418;52.694;13.294;2022-12-18T05:57:55;-5.90;99.90
18577;DHT22;9418;52.694;13.294;2022-12-18T06:00:22;-5.90;99.90
18577;DHT22;9418;52.694;13.294;2022-12-18T06:02:48;-5.80;99.90
18577;DHT22;9418;52.694;13.294;2022-12-18T06:05:15;-5.80;96.90
18577;DHT22;9418;52.694;13.294;2022-12-18T06:07:42;-5.90;86.80
18577;DHT22;9418;52.694;13.294;2022-12-18T06:10:09;-5.90;22.20
18577;DHT22;9418;52.694;13.294;2022-12-18T06:12:35;-5.90;78.50
18577;DHT22;9418;52.694;13.294;2022-12-18T06:15:03;-6.00;21.80
18577;DHT22;9418;52.694;13.294;2022-12-18T06:17:31;-6.00;99.90
18577;DHT22;9418;52.694;13.294;2022-12-18T06:19:57;-5.90;99.90
18577;DHT22;9418;52.694;13.294;2022-12-18T06:22:24;-5.90;99.90
18577;DHT22;9418;52.694;13.294;2022-12-18T06:24:51;-5.90;99.90
18577;DHT22;9418;52.694;13.294;2022-12-18T06:27:18;-6.00;25.40
18577;DHT22;9418;52.694;13.294;2022-12-18T06:29:45;-5.90;97.40
18577;DHT22;9418;52.694;13.294;2022-12-18T06:32:12;-6.00;27.10
18577;DHT22;9418;52.694;13.294;2022-12-18T06:34:39;-6.10;21.20
18577;DHT22;9418;52.694;13.294;2022-12-18T06:37:06;-6.10;90.30
18577;DHT22;9418;52.694;13.294;2022-12-18T06:39:32;-6.10;20.00
18577;DHT22;9418;52.694;13.294;2022-12-18T06:41:59;-6.10;91.70
18577;DHT22;9418;52.694;13.294;2022-12-18T06:44:26;-6.00;99.90
18577;DHT22;9418;52.694;13.294;2022-12-18T06:46:52;-6.00;99.90
18577;DHT22;9418;52.694;13.294;2022-12-18T06:49:20;-6.00;87.70
18577;DHT22;9418;52.694;13.294;2022-12-18T06:51:47;-6.00;97.20
18577;DHT22;9418;52.694;13.294;2022-12-18T06:54:13;-6.00;86.50
18577;DHT22;9418;52.694;13.294;2022-12-18T06:56:40;-6.00;76.10
18577;DHT22;9418;52.694;13.294;2022-12-18T06:59:06;-6.00;24.50
18577;DHT22;9418;52.694;13.294;2022-12-18T07:01:33;-6.00;25.10
18577;DHT22;9418;52.694;13.294;2022-12-18T07:03:59;-6.10;27.10
18577;DHT22;9418;52.694;13.294;2022-12-18T07:06:27;-6.10;20.70
18577;DHT22;9418;52.694;13.294;2022-12-18T07:08:54;-6.10;85.00
18577;DHT22;9418;52.694;13.294;2022-12-18T07:11:21;-6.10;78.60
18577;DHT22;9418;52.694;13.294;2022-12-18T07:13:47;-6.00;99.90
18577;DHT22;9418;52.694;13.294;2022-12-18T07:16:16;-6.00;94.90
18577;DHT22;9418;52.694;13.294;2022-12-18T07:18:43;-5.90;77.40
18577;DHT22;9418;52.694;13.294;2022-12-18T07:21:11;-6.00;22.60
18577;DHT22;9418;52.694;13.294;2022-12-18T07:23:39;-6.00;23.30
18577;DHT22;9418;52.694;13.294;2022-12-18T07:26:08;-6.00;99.90
18577;DHT22;9418;52.694;13.294;2022-12-18T07:28:36;-5.90;95.20
18577;DHT22;9418;52.694;13.294;2022-12-18T07:31:03;-5.90;85.50
18577;DHT22;9418;52.694;13.294;2022-12-18T07:33:30;-5.90;75.00
18577;DHT22;9418;52.694;13.294;2022-12-18T07:35:56;-6.00;76.20
18577;DHT22;9418;52.694;13.294;2022-12-18T07:38:24;-5.90;76.90
18577;DHT22;9418;52.694;13.294;2022-12-18T07:40:52;-5.90;84.10
18577;DHT22;9418;52.694;13.294;2022-12-18T07:43:18;-5.90;87.80
18577;DHT22;9418;52.694;13.294;2022-12-18T07:45:45;-5.90;87.60
18577;DHT22;9418;52.694;13.294;2022-12-18T07:48:15;-5.90;85.50
18577;DHT22;9418;52.694;13.294;2022-12-18T07:50:42;-5.90;99.90
18577;DHT22;9418;52.694;13.294;2022-12-18T07:53:08;-5.80;99.90
18577;DHT22;9418;52.694;13.294;2022-12-18T07:55:35;-5.80;99.90
18577;DHT22;9418;52.694;13.294;2022-12-18T07:58:03;-5.80;91.20
18577;DHT22;9418;52.694;13.294;2022-12-18T08:00:30;-5.70;99.90
18577;DHT22;9418;52.694;13.294;2022-12-18T08:02:57;-5.60;99.90
18577;DHT22;9418;52.694;13.294;2022-12-18T08:05:24;-5.60;89.00
18577;DHT22;9418;52.694;13.294;2022-12-18T08:07:50;-5.50;84.80
18577;DHT22;9418;52.694;13.294;2022-12-18T08:10:17;-5.30;99.90
18577;DHT22;9418;52.694;13.294;2022-12-18T08:12:44;-5.40;25.40
18577;DHT22;9418;52.694;13.294;2022-12-18T08:15:11;-5.40;23.70
18577;DHT22;9418;52.694;13.294;2022-12-18T08:17:38;-5.40;25.30
18577;DHT22;9418;52.694;13.294;2022-12-18T08:20:05;-5.40;20.20
18577;DHT22;9418;52.694;13.294;2022-12-18T08:22:33;-5.40;25.30
18577;DHT22;9418;52.694;13.294;2022-12-18T08:25:00;-5.50;32.00
18577;DHT22;9418;52.694;13.294;2022-12-18T08:27:27;-5.50;90.80
18577;DHT22;9418;52.694;13.294;2022-12-18T08:29:53;-5.50;23.80
18577;DHT22;9418;52.694;13.294;2022-12-18T08:32:21;-5.50;25.10
18577;DHT22;9418;52.694;13.294;2022-12-18T08:34:48;-5.80;24.90
18577;DHT22;9418;52.694;13.294;2022-12-18T08:37:14;-5.60;87.80
18577;DHT22;9418;52.694;13.294;2022-12-18T08:39:41;-5.70;72.70
18577;DHT22;9418;52.694;13.294;2022-12-18T08:42:07;-5.80;24.50
18577;DHT22;9418;52.694;13.294;2022-12-18T08:44:52;-5.60;99.90
18577;DHT22;9418;52.694;13.294;2022-12-18T08:47:18;-5.70;20.20
18577;DHT22;9418;52.694;13.294;2022-12-18T08:49:46;-5.50;99.90
18577;DHT22;9418;52.694;13.294;2022-12-18T08:52:13;-5.50;88.90
18577;DHT22;9418;52.694;13.294;2022-12-18T08:54:39;-5.40;83.30
18577;DHT22;9418;52.694;13.294;2022-12-18T08:57:06;-5.30;96.60
18577;DHT22;9418;52.694;13.294;2022-12-18T08:59:32;-5.30;27.50
18577;DHT22;9418;52.694;13.294;2022-12-18T09:01:59;-5.30;27.30
18577;DHT22;9418;52.694;13.294;2022-12-18T09:04:25;-5.10;24.90
18577;DHT22;9418;52.694;13.294;2022-12-18T09:06:54;-5.20;42.10
18577;DHT22;9418;52.694;13.294;2022-12-18T09:09:21;-5.20;39.10
18577;DHT22;9418;52.694;13.294;2022-12-18T09:11:47;-5.20;41.80
18577;DHT22;9418;52.694;13.294;2022-12-18T09:14:14;-5.20;35.50
18577;DHT22;9418;52.694;13.294;2022-12-18T09:16:40;-5.20;36.80
18577;DHT22;9418;52.694;13.294;2022-12-18T09:19:08;-5.20;36.00
18577;DHT22;9418;52.694;13.294;2022-12-18T09:21:35;-5.40;40.20
18577;DHT22;9418;52.694;13.294;2022-12-18T09:24:05;-5.30;30.30
18577;DHT22;9418;52.694;13.294;2022-12-18T09:26:32;-5.20;28.60
18577;DHT22;9418;52.694;13.294;2022-12-18T09:28:59;-5.10;28.30
18577;DHT22;9418;52.694;13.294;2022-12-18T09:31:25;-5.20;33.80
18577;DHT22;9418;52.694;13.294;2022-12-18T09:33:52;-5.30;23.80
18577;DHT22;9418;52.694;13.294;2022-12-18T09:36:18;-5.20;20.90
18577;DHT22;9418;52.694;13.294;2022-12-18T09:38:45;-5.10;21.50
18577;DHT22;9418;52.694;13.294;2022-12-18T09:41:37;-5.10;25.80
18577;DHT22;9418;52.694;13.294;2022-12-18T09:44:17;-5.20;27.20
18577;DHT22;9418;52.694;13.294;2022-12-18T09:46:47;-5.20;80.40
18577;DHT22;9418;52.694;13.294;2022-12-18T09:49:21;-5.10;72.00
18577;DHT22;9418;52.694;13.294;2022-12-18T09:51:52;-5.10;27.10
18577;DHT22;9418;52.694;13.294;2022-12-18T09:54:22;-5.10;27.00
18577;DHT22;9418;52.694;13.294;2022-12-18T09:56:50;-5.00;28.60
18577;DHT22;9418;52.694;13.294;2022-12-18T09:59:21;-5.00;27.60
18577;DHT22;9418;52.694;13.294;2022-12-18T10:01:49;-5.00;27.00
18577;DHT22;9418;52.694;13.294;2022-12-18T10:04:16;-5.10;43.70
18577;DHT22;9418;52.694;13.294;2022-12-18T10:06:46;-5.00;24.90
18577;DHT22;9418;52.694;13.294;2022-12-18T10:09:24;-4.90;26.50
18577;DHT22;9418;52.694;13.294;2022-12-18T10:11:58;-5.00;36.80
18577;DHT22;9418;52.694;13.294;2022-12-18T10:14:34;-5.10;33.00
18577;DHT22;9418;52.694;13.294;2022-12-18T10:17:12;-5.10;31.20
18577;DHT22;9418;52.694;13.294;2022-12-18T10:19:43;-5.00;31.50
18577;DHT22;9418;52.694;13.294;2022-12-18T10:22:28;-4.90;33.40
18577;DHT22;9418;52.694;13.294;2022-12-18T10:25:02;-4.90;32.90
18577;DHT22;9418;52.694;13.294;2022-12-18T10:27:31;-4.90;42.80
18577;DHT22;9418;52.694;13.294;2022-12-18T10:29:58;-4.90;45.90
18577;DHT22;9418;52.694;13.294;2022-12-18T10:32:27;-4.80;40.00
18577;DHT22;9418;52.694;13.294;2022-12-18T10:34:57;-4.80;40.30
18577;DHT22;9418;52.694;13.294;2022-12-18T10:37:25;-4.80;41.70
18577;DHT22;9418;52.694;13.294;2022-12-18T10:40:07;-4.70;40.00
18577;DHT22;9418;52.694;13.294;2022-12-18T10:42:36;-5.00;25.80
18577;DHT22;9418;52.694;13.294;2022-12-18T10:45:07;-4.80;75.60
18577;DHT22;9418;52.694;13.294;2022-12-18T10:47:34;-4.70;21.10
18577;DHT22;9418;52.694;13.294;2022-12-18T10:50:01;-4.60;22.00
18577;DHT22;9418;52.694;13.294;2022-12-18T10:52:28;-4.60;32.60
18577;DHT22;9418;52.694;13.294;2022-12-18T10:54:55;-4.70;39.60
18577;DHT22;9418;52.694;13.294;2022-12-18T10:57:33;-4.70;35.90
18577;DHT22;9418;52.694;13.294;2022-12-18T11:00:21;-4.60;28.50
18577;DHT22;9418;52.694;13.294;2022-12-18T11:02:47;-4.70;35.10
18577;DHT22;9418;52.694;13.294;2022-12-18T11:05:27;-4.50;21.90
18577;DHT22;9418;52.694;13.294;2022-12-18T11:07:54;-4.50;23.30
18577;DHT22;9418;52.694;13.294;2022-12-18T11:10:23;-4.40;25.20
18577;DHT22;9418;52.694;13.294;2022-12-18T11:12:52;-4.40;28.40
18577;DHT22;9418;52.694;13.294;2022-12-18T11:15:23;-4.30;22.60
18577;DHT22;9418;52.694;13.294;2022-12-18T11:17:51;-4.30;30.40
18577;DHT22;9418;52.694;13.294;2022-12-18T11:20:30;-4.20;25.20
18577;DHT22;9418;52.694;13.294;2022-12-18T11:22:58;-4.20;82.30
18577;DHT22;9418;52.694;13.294;2022-12-18T11:25:26;-4.20;81.10
18577;DHT22;9418;52.694;13.294;2022-12-18T11:27:55;-4.20;89.80
18577;DHT22;9418;52.694;13.294;2022-12-18T11:30:25;-4.20;20.20
18577;DHT22;9418;52.694;13.294;2022-12-18T11:32:55;-4.10;91.10
18577;DHT22;9418;52.694;13.294;2022-12-18T11:35:34;-4.10;99.90
18577;DHT22;9418;52.694;13.294;2022-12-18T11:38:09;-4.10;93.70
18577;DHT22;9418;52.694;13.294;2022-12-18T11:40:38;-4.00;95.30
18577;DHT22;9418;52.694;13.294;2022-12-18T11:43:09;-3.90;99.90
18577;DHT22;9418;52.694;13.294;2022-12-18T11:45:41;-3.90;99.90
18577;DHT22;9418;52.694;13.294;2022-12-18T11:48:14;-3.90;99.90
18577;DHT22;9418;52.694;13.294;2022-12-18T11:50:46;-3.80;99.90
18577;DHT22;9418;52.694;13.294;2022-12-18T11:53:13;-3.80;99.90
18577;DHT22;9418;52.694;13.294;2022-12-18T11:55:48;-3.70;99.90
18577;DHT22;9418;52.694;13.294;2022-12-18T11:58:24;-3.70;80.10
18577;DHT22;9418;52.694;13.294;2022-12-18T12:01:00;-3.70;99.90
18577;DHT22;9418;52.694;13.294;2022-12-18T12:03:57;-3.70;99.90
18577;DHT22;9418;52.694;13.294;2022-12-18T12:06:33;-3.70;99.90
18577;DHT22;9418;52.694;13.294;2022-12-18T12:09:10;-3.60;99.90
18577;DHT22;9418;52.694;13.294;2022-12-18T12:11:44;-3.60;99.90
18577;DHT22;9418;52.694;13.294;2022-12-18T12:14:27;-3.50;99.90
18577;DHT22;9418;52.694;13.294;2022-12-18T12:17:01;-3.60;99.70
18577;DHT22;9418;52.694;13.294;2022-12-18T12:19:40;-3.60;95.00
18577;DHT22;9418;52.694;13.294;2022-12-18T12:22:13;-3.50;99.90
18577;DHT22;9418;52.694;13.294;2022-12-18T12:24:54;-3.50;99.90
18577;DHT22;9418;52.694;13.294;2022-12-18T12:27:33;-3.40;99.90
18577;DHT22;9418;52.694;13.294;2022-12-18T12:30:05;-3.40;99.90
18577;DHT22;9418;52.694;13.294;2022-12-18T12:32:45;-3.40;99.90
18577;DHT22;9418;52.694;13.294;2022-12-18T12:35:23;-3.40;99.90
18577;DHT22;9418;52.694;13.294;2022-12-18T12:37:55;-3.50;22.50
18577;DHT22;9418;52.694;13.294;2022-12-18T12:40:27;-3.40;99.90
18577;DHT22;9418;52.694;13.294;2022-12-18T12:42:56;-3.50;73.30
18577;DHT22;9418;52.694;13.294;2022-12-18T12:45:42;-3.50;89.10
18577;DHT22;9418;52.694;13.294;2022-12-18T12:48:18;-3.60;99.90
18577;DHT22;9418;52.694;13.294;2022-12-18T12:50:46;-3.60;99.90
18577;DHT22;9418;52.694;13.294;2022-12-18T12:53:22;-3.50;99.90
18577;DHT22;9418;52.694;13.294;2022-12-18T12:55:50;-3.60;99.90
18577;DHT22;9418;52.694;13.294;2022-12-18T12:58:26;-3.60;99.90
18577;DHT22;9418;52.694;13.294;2022-12-18T13:01:04;-3.70;99.90
18577;DHT22;9418;52.694;13.294;2022-12-18T13:03:46;-3.70;99.90
18577;DHT22;9418;52.694;13.294;2022-12-18T13:06:23;-3.70;99.90
18577;DHT22;9418;52.694;13.294;2022-12-18T13:08:54;-3.70;99.90
18577;DHT22;9418;52.694;13.294;2022-12-18T13:11:34;-3.70;99.90
18577;DHT22;9418;52.694;13.294;2022-12-18T13:14:22;-3.60;99.90
18577;DHT22;9418;52.694;13.294;2022-12-18T13:16:49;-3.70;99.90
18577;DHT22;9418;52.694;13.294;2022-12-18T13:19:23;-3.70;99.90
18577;DHT22;9418;52.694;13.294;2022-12-18T13:21:53;-3.70;78.30
18577;DHT22;9418;52.694;13.294;2022-12-18T13:24:25;-3.70;99.90
18577;DHT22;9418;52.694;13.294;2022-12-18T13:26:52;-3.70;91.20
18577;DHT22;9418;52.694;13.294;2022-12-18T13:29:40;-3.80;88.10
18577;DHT22;9418;52.694;13.294;2022-12-18T13:32:20;-3.70;94.70
18577;DHT22;9418;52.694;13.294;2022-12-18T13:34:48;-3.70;96.60
18577;DHT22;9418;52.694;13.294;2022-12-18T13:37:40;-3.80;99.90
18577;DHT22;9418;52.694;13.294;2022-12-18T13:43:24;-3.80;99.90
18577;DHT22;9418;52.694;13.294;2022-12-18T13:46:05;-4.00;99.90
18577;DHT22;9418;52.694;13.294;2022-12-18T13:48:34;-4.00;99.90
18577;DHT22;9418;52.694;13.294;2022-12-18T13:51:06;-4.00;99.90
18577;DHT22;9418;52.694;13.294;2022-12-18T13:53:36;-3.90;99.90
18577;DHT22;9418;52.694;13.294;2022-12-18T13:56:05;-3.90;99.90
18577;DHT22;9418;52.694;13.294;2022-12-18T13:58:31;-4.10;99.90
18577;DHT22;9418;52.694;13.294;2022-12-18T14:00:58;-4.00;99.90
18577;DHT22;9418;52.694;13.294;2022-12-18T14:03:28;-4.00;99.90
18577;DHT22;9418;52.694;13.294;2022-12-18T14:06:01;-4.10;99.90
18577;DHT22;9418;52.694;13.294;2022-12-18T14:08:34;-4.00;99.90
18577;DHT22;9418;52.694;13.294;2022-12-18T14:11:03;-4.00;99.90
18577;DHT22;9418;52.694;13.294;2022-12-18T14:13:32;-4.00;99.90
18577;DHT22;9418;52.694;13.294;2022-12-18T14:16:00;-4.00;99.90
18577;DHT22;9418;52.694;13.294;2022-12-18T14:18:32;-4.00;99.90
18577;DHT22;9418;52.694;13.294;2022-12-18T14:21:02;-4.00;99.90
18577;DHT22;9418;52.694;13.294;2022-12-18T14:23:33;-4.00;99.90
18577;DHT22;9418;52.694;13.294;2022-12-18T14:26:00;-4.00;99.90
18577;DHT22;9418;52.694;13.294;2022-12-18T14:28:27;-4.00;99.90
18577;DHT22;9418;52.694;13.294;2022-12-18T14:30:53;-4.00;99.90
18577;DHT22;9418;52.694;13.294;2022-12-18T14:33:23;-4.10;99.90
18577;DHT22;9418;52.694;13.294;2022-12-18T14:35:56;-4.10;99.90
18577;DHT22;9418;52.694;13.294;2022-12-18T14:38:26;-4.10;99.90
18577;DHT22;9418;52.694;13.294;2022-12-18T14:40:55;-4.10;99.90
18577;DHT22;9418;52.694;13.294;2022-12-18T14:43:22;-4.20;99.90
18577;DHT22;9418;52.694;13.294;2022-12-18T14:45:50;-4.10;99.90
18577;DHT22;9418;52.694;13.294;2022-12-18T14:48:19;-4.10;99.90
18577;DHT22;9418;52.694;13.294;2022-12-18T14:50:59;-4.10;99.90
18577;DHT22;9418;52.694;13.294;2022-12-18T14:53:44;-4.00;99.90
18577;DHT22;9418;52.694;13.294;2022-12-18T14:56:16;-4.00;99.90
18577;DHT22;9418;52.694;13.294;2022-12-18T14:58:48;-4.00;99.90
18577;DHT22;9418;52.694;13.294;2022-12-18T15:01:23;-4.00;99.90
18577;DHT22;9418;52.694;13.294;2022-12-18T15:03:52;-3.90;99.90
18577;DHT22;9418;52.694;13.294;2022-12-18T15:06:29;-4.00;99.90
18577;DHT22;9418;52.694;13.294;2022-12-18T15:08:56;-4.00;99.90
18577;DHT22;9418;52.694;13.294;2022-12-18T15:11:35;-3.90;99.90
18577;DHT22;9418;52.694;13.294;2022-12-18T15:14:33;-3.90;99.90
18577;DHT22;9418;52.694;13.294;2022-12-18T15:17:02;-3.90;99.90
18577;DHT22;9418;52.694;13.294;2022-12-18T15:19:35;-4.00;99.90
18577;DHT22;9418;52.694;13.294;2022-12-18T15:22:03;-4.00;99.90
18577;DHT22;9418;52.694;13.294;2022-12-18T15:24:31;-4.00;99.90
18577;DHT22;9418;52.694;13.294;2022-12-18T15:27:00;-3.90;99.90
18577;DHT22;9418;52.694;13.294;2022-12-18T15:29:27;-3.90;99.90
18577;DHT22;9418;52.694;13.294;2022-12-18T15:32:04;-3.90;99.90
18577;DHT22;9418;52.694;13.294;2022-12-18T15:34:32;-3.90;99.90
18577;DHT22;9418;52.694;13.294;2022-12-18T15:36:59;-3.90;99.90
18577;DHT22;9418;52.694;13.294;2022-12-18T15:39:26;-4.00;99.90
18577;DHT22;9418;52.694;13.294;2022-12-18T15:41:52;-4.00;99.90
18577;DHT22;9418;52.694;13.294;2022-12-18T15:44:38;-4.00;99.90
18577;DHT22;9418;52.694;13.294;2022-12-18T15:47:10;-4.00;99.90
18577;DHT22;9418;52.694;13.294;2022-12-18T15:49:37;-4.00;99.90
18577;DHT22;9418;52.694;13.294;2022-12-18T15:52:04;-4.00;99.90